createdAt,value
2019-02-07T00:02:17.167Z,7.10
2019-02-07T00:04:48.019Z,7.10
2019-02-07T00:07:18.408Z,7.10
2019-02-07T00:09:49.746Z,7.10
2019-02-07T00:12:20.203Z,7.10
2019-02-07T00:14:51.677Z,7.10
2019-02-07T00:17:22.097Z,7.10
2019-02-07T00:19:53.922Z,7.00
2019-02-07T00:22:25.371Z,7.00
2019-02-07T00:24:55.736Z,7.10
2019-02-07T00:27:26.136Z,7.10
2019-02-07T00:29:56.670Z,7.00
2019-02-07T00:32:27.464Z,7.00
2019-02-07T00:34:57.996Z,7.00
2019-02-07T00:37:28.410Z,7.00
2019-02-07T00:39:58.828Z,7.00
2019-02-07T00:42:29.142Z,7.00
2019-02-07T00:44:59.494Z,7.10
2019-02-07T00:47:29.953Z,7.10
2019-02-07T00:50:00.477Z,7.00
2019-02-07T00:52:30.895Z,7.00
2019-02-07T00:55:01.619Z,7.00
2019-02-07T00:57:32.052Z,7.00
2019-02-07T01:00:02.877Z,7.00
2019-02-07T01:02:36.264Z,7.00
2019-02-07T01:05:07.800Z,7.00
2019-02-07T01:07:38.456Z,7.00
2019-02-07T01:10:11.252Z,7.00
2019-02-07T01:12:41.714Z,6.90
2019-02-07T01:15:13.444Z,7.00
2019-02-07T01:17:43.944Z,7.00
2019-02-07T01:20:16.399Z,6.90
2019-02-07T01:22:46.959Z,7.00
2019-02-07T01:25:19.851Z,7.00
2019-02-07T01:27:51.431Z,7.10
2019-02-07T01:30:22.532Z,7.00
2019-02-07T01:32:53.338Z,7.00
2019-02-07T01:35:23.803Z,7.00
2019-02-07T01:37:54.754Z,7.00
2019-02-07T01:40:25.578Z,6.90
2019-02-07T01:42:56.050Z,7.00
2019-02-07T01:45:26.566Z,7.00
2019-02-07T01:47:56.956Z,7.00
2019-02-07T01:50:27.509Z,7.00
2019-02-07T01:52:57.887Z,7.00
2019-02-07T01:55:28.311Z,7.00
2019-02-07T01:57:58.662Z,7.00
2019-02-07T02:00:29.207Z,7.00
2019-02-07T02:02:59.638Z,7.10
2019-02-07T02:05:30.336Z,7.00
2019-02-07T02:08:01.099Z,7.00
2019-02-07T02:10:31.591Z,7.00
2019-02-07T02:13:02.400Z,7.00
2019-02-07T02:15:32.786Z,7.00
2019-02-07T02:18:04.231Z,7.00
2019-02-07T02:20:35.487Z,7.00
2019-02-07T02:23:05.962Z,7.10
2019-02-07T02:25:36.514Z,7.10
2019-02-07T02:28:06.962Z,7.10
2019-02-07T02:30:37.558Z,7.10
2019-02-07T02:33:07.899Z,7.10
2019-02-07T02:35:38.411Z,7.10
2019-02-07T02:38:10.672Z,7.20
2019-02-07T02:40:41.440Z,7.20
2019-02-07T02:43:11.820Z,7.30
2019-02-07T02:45:42.712Z,7.30
2019-02-07T02:48:13.259Z,7.30
2019-02-07T02:50:44.116Z,7.30
2019-02-07T02:53:16.271Z,7.30
2019-02-07T02:55:46.679Z,7.30
2019-02-07T02:58:17.059Z,7.30
2019-02-07T03:01:05.188Z,7.40
2019-02-07T03:03:54.608Z,7.30
2019-02-07T03:06:44.457Z,7.30
2019-02-07T03:09:25.970Z,7.40
2019-02-07T03:12:14.185Z,7.30
2019-02-07T03:14:55.024Z,7.40
2019-02-07T03:17:39.603Z,7.40
2019-02-07T03:20:38.743Z,7.40
2019-02-07T03:23:27.670Z,7.40
2019-02-07T03:26:16.433Z,7.50
2019-02-07T03:29:12.027Z,7.40
2019-02-07T03:32:21.232Z,7.40
2019-02-07T03:35:13.879Z,7.50
2019-02-07T03:38:05.428Z,7.50
2019-02-07T03:40:54.903Z,7.50
2019-02-07T03:43:51.031Z,7.50
2019-02-07T03:46:43.331Z,7.50
2019-02-07T03:49:41.981Z,7.50
2019-02-07T03:52:26.097Z,7.60
2019-02-07T03:55:06.150Z,7.60
2019-02-07T03:57:49.303Z,7.60
2019-02-07T04:00:37.838Z,7.60
2019-02-07T04:03:27.353Z,7.60
2019-02-07T04:06:22.783Z,7.60
2019-02-07T04:09:09.119Z,7.70
2019-02-07T04:11:58.535Z,7.70
2019-02-07T04:14:47.425Z,7.70
2019-02-07T04:17:31.480Z,7.80
2019-02-07T04:20:23.704Z,7.80
2019-02-07T04:23:13.143Z,7.80
2019-02-07T04:25:55.403Z,7.80
2019-02-07T04:28:46.681Z,7.80
2019-02-07T04:31:26.380Z,7.80
2019-02-07T04:34:08.761Z,7.80
2019-02-07T04:36:46.040Z,7.90
2019-02-07T04:39:30.810Z,7.90
2019-02-07T04:42:20.278Z,7.90
2019-02-07T04:45:00.622Z,7.90
2019-02-07T04:47:43.684Z,7.90
2019-02-07T04:50:36.334Z,8.00
2019-02-07T04:53:19.960Z,8.00
2019-02-07T04:56:09.380Z,8.10
2019-02-07T04:59:02.944Z,8.00
2019-02-07T05:02:04.663Z,8.00
2019-02-07T05:04:53.675Z,8.10
2019-02-07T05:07:42.984Z,8.10
2019-02-07T05:10:42.892Z,8.10
2019-02-07T05:13:36.290Z,8.10
2019-02-07T05:16:40.311Z,8.20
2019-02-07T05:19:33.406Z,8.20
2019-02-07T05:22:12.991Z,8.20
2019-02-07T05:24:55.558Z,8.20
2019-02-07T05:27:39.915Z,8.20
2019-02-07T05:30:28.609Z,8.20
2019-02-07T05:33:20.924Z,8.20
2019-02-07T05:36:02.842Z,8.20
2019-02-07T05:38:57.467Z,8.20
2019-02-07T05:41:45.737Z,8.30
2019-02-07T05:44:35.361Z,8.30
2019-02-07T05:47:21.115Z,8.30
2019-02-07T05:50:08.143Z,8.30
2019-02-07T05:53:03.298Z,8.40
2019-02-07T05:55:53.495Z,8.40
2019-02-07T05:58:52.138Z,8.50
2019-02-07T06:01:50.735Z,8.50
2019-02-07T06:04:41.447Z,8.50
2019-02-07T06:07:25.725Z,8.50
2019-02-07T06:10:13.848Z,8.50
2019-02-07T06:13:03.539Z,8.60
2019-02-07T06:16:08.660Z,8.50
2019-02-07T06:19:05.593Z,8.60
2019-02-07T06:21:59.339Z,8.50
2019-02-07T06:24:44.559Z,8.50
2019-02-07T06:27:31.434Z,8.40
2019-02-07T06:30:20.439Z,8.40
2019-02-07T06:33:09.455Z,8.30
2019-02-07T06:36:00.891Z,8.20
2019-02-07T06:38:42.530Z,8.20
2019-02-07T06:41:30.951Z,8.10
2019-02-07T06:44:21.899Z,8.10
2019-02-07T06:47:13.503Z,8.00
2019-02-07T06:50:19.983Z,7.90
2019-02-07T06:53:01.979Z,7.90
2019-02-07T06:55:51.550Z,7.90
2019-02-07T06:58:43.391Z,7.90
2019-02-07T07:01:35.379Z,7.90
2019-02-07T07:04:25.600Z,7.80
2019-02-07T07:07:15.194Z,7.90
2019-02-07T07:10:09.468Z,7.90
2019-02-07T07:13:02.146Z,7.80
2019-02-07T07:15:44.780Z,7.70
2019-02-07T07:18:36.482Z,7.60
2019-02-07T07:21:35.247Z,7.60
2019-02-07T07:24:31.027Z,7.50
2019-02-07T07:27:29.695Z,7.50
2019-02-07T07:30:17.770Z,7.40
2019-02-07T07:33:05.915Z,7.40
2019-02-07T07:35:55.377Z,7.40
2019-02-07T07:38:47.839Z,7.30
2019-02-07T07:41:36.219Z,7.40
2019-02-07T07:44:18.327Z,7.40
2019-02-07T07:47:06.320Z,7.50
2019-02-07T07:49:55.278Z,7.50
2019-02-07T07:52:48.123Z,7.50
2019-02-07T07:55:40.714Z,7.50
2019-02-07T07:58:39.926Z,7.60
2019-02-07T08:01:43.943Z,7.60
2019-02-07T08:04:32.288Z,7.60
2019-02-07T08:07:27.275Z,7.60
2019-02-07T08:10:10.858Z,7.60
2019-02-07T08:12:59.294Z,7.60
2019-02-07T08:15:38.499Z,7.60
2019-02-07T08:18:28.143Z,7.60
2019-02-07T08:21:20.717Z,7.70
2019-02-07T08:24:26.257Z,7.60
2019-02-07T08:27:12.978Z,7.70
2019-02-07T08:30:08.826Z,7.70
2019-02-07T08:33:01.407Z,7.80
2019-02-07T08:35:57.301Z,7.80
2019-02-07T08:39:00.637Z,7.80
2019-02-07T08:42:02.907Z,7.90
2019-02-07T08:45:03.241Z,8.00
2019-02-07T08:47:58.465Z,8.10
2019-02-07T08:50:44.931Z,8.10
2019-02-07T08:53:40.569Z,8.00
2019-02-07T08:56:48.187Z,8.00
2019-02-07T08:59:39.328Z,8.00
2019-02-07T09:02:24.116Z,8.00
2019-02-07T09:05:19.698Z,8.00
2019-02-07T09:08:22.354Z,8.00
2019-02-07T09:11:03.433Z,8.00
2019-02-07T09:13:53.868Z,7.90
2019-02-07T09:16:31.828Z,7.90
2019-02-07T09:19:22.960Z,7.90
2019-02-07T09:22:27.199Z,8.00
2019-02-07T09:25:19.689Z,8.20
2019-02-07T09:28:11.948Z,8.40
2019-02-07T09:31:02.874Z,8.40
2019-02-07T09:33:58.448Z,8.50
2019-02-07T09:37:02.199Z,8.50
2019-02-07T09:39:42.363Z,9.00
2019-02-07T09:42:22.875Z,10.10
2019-02-07T09:45:18.576Z,10.60
2019-02-07T09:48:06.972Z,11.10
2019-02-07T09:50:45.096Z,11.30
2019-02-07T09:53:25.109Z,11.30
2019-02-07T09:56:05.834Z,11.50
2019-02-07T09:58:59.100Z,12.30
2019-02-07T10:01:49.441Z,13.50
2019-02-07T10:04:38.205Z,13.90
2019-02-07T10:07:26.560Z,14.60
2019-02-07T10:10:22.455Z,14.60
2019-02-07T10:13:09.603Z,14.80
2019-02-07T10:16:06.335Z,15.00
2019-02-07T10:19:00.736Z,14.90
2019-02-07T10:21:47.050Z,15.30
2019-02-07T10:24:27.780Z,15.70
2019-02-07T10:27:17.353Z,16.00
2019-02-07T10:30:07.030Z,16.00
2019-02-07T10:32:58.328Z,16.10
2019-02-07T10:35:49.274Z,15.30
2019-02-07T10:38:35.963Z,15.60
2019-02-07T10:41:28.283Z,15.10
2019-02-07T10:44:21.775Z,14.90
2019-02-07T10:47:14.444Z,15.30
2019-02-07T10:49:59.389Z,15.80
2019-02-07T10:52:52.197Z,14.90
2019-02-07T10:55:53.934Z,15.50
2019-02-07T10:58:40.343Z,15.80
2019-02-07T11:01:34.237Z,16.50
2019-02-07T11:04:33.879Z,14.70
2019-02-07T11:07:16.261Z,16.30
2019-02-07T11:10:21.004Z,16.80
2019-02-07T11:13:08.590Z,17.40
2019-02-07T11:15:56.836Z,16.10
2019-02-07T11:19:01.743Z,15.90
2019-02-07T11:21:44.174Z,16.60
2019-02-07T11:24:36.802Z,15.60
2019-02-07T11:27:34.910Z,15.70
2019-02-07T11:30:27.895Z,13.90
2019-02-07T11:33:16.862Z,16.30
2019-02-07T11:36:05.246Z,17.40
2019-02-07T11:39:13.802Z,17.10
2019-02-07T11:42:02.223Z,17.80
2019-02-07T11:44:53.039Z,16.80
2019-02-07T11:47:43.465Z,17.40
2019-02-07T11:50:32.147Z,16.80
2019-02-07T11:53:31.164Z,17.60
2019-02-07T11:56:20.514Z,15.50
2019-02-07T11:59:11.329Z,15.90
2019-02-07T12:02:09.116Z,16.20
2019-02-07T12:05:00.758Z,18.20
2019-02-07T12:07:56.867Z,18.20
2019-02-07T12:10:58.662Z,17.60
2019-02-07T12:13:54.060Z,18.00
2019-02-07T12:16:42.563Z,19.00
2019-02-07T12:19:28.146Z,18.20
2019-02-07T12:22:14.443Z,17.90
2019-02-07T12:25:19.285Z,17.60
2019-02-07T12:28:14.582Z,17.80
2019-02-07T12:31:02.772Z,15.20
2019-02-07T12:34:10.593Z,15.10
2019-02-07T12:36:48.587Z,15.60
2019-02-07T12:39:41.520Z,14.20
2019-02-07T12:42:24.863Z,14.20
2019-02-07T12:45:31.023Z,15.00
2019-02-07T12:48:19.698Z,14.90
2019-02-07T12:51:27.331Z,16.50
2019-02-07T12:54:16.767Z,15.40
2019-02-07T12:57:09.702Z,14.80
2019-02-07T12:59:58.221Z,15.00
2019-02-07T13:02:38.495Z,13.90
2019-02-07T13:05:36.575Z,15.60
2019-02-07T13:08:14.940Z,16.10
2019-02-07T13:11:10.530Z,15.50
2019-02-07T13:14:00.781Z,15.50
2019-02-07T13:16:51.314Z,16.50
2019-02-07T13:19:43.577Z,15.60
2019-02-07T13:22:33.212Z,16.10
2019-02-07T13:25:29.354Z,15.00
2019-02-07T13:28:18.602Z,15.00
2019-02-07T13:31:15.178Z,15.30
2019-02-07T13:34:03.328Z,15.60
2019-02-07T13:36:44.399Z,15.10
2019-02-07T13:39:26.138Z,16.50
2019-02-07T13:42:15.259Z,14.90
2019-02-07T13:45:20.123Z,13.70
2019-02-07T13:48:08.084Z,13.50
2019-02-07T13:50:56.694Z,14.60
2019-02-07T13:53:46.547Z,14.70
2019-02-07T13:56:36.152Z,14.40
2019-02-07T13:59:21.944Z,15.20
2019-02-07T14:02:11.454Z,15.60
2019-02-07T14:04:55.915Z,15.60
2019-02-07T14:07:42.877Z,16.10
2019-02-07T14:10:42.281Z,15.40
2019-02-07T14:13:32.410Z,15.10
2019-02-07T14:16:28.227Z,14.80
2019-02-07T14:19:20.816Z,13.50
2019-02-07T14:22:09.019Z,13.20
2019-02-07T14:25:13.896Z,12.20
2019-02-07T14:27:58.114Z,12.50
2019-02-07T14:30:49.204Z,11.80
2019-02-07T14:33:41.564Z,11.50
2019-02-07T14:36:31.168Z,11.30
2019-02-07T14:39:17.435Z,10.90
2019-02-07T14:41:55.523Z,10.70
2019-02-07T14:44:44.008Z,10.60
2019-02-07T14:47:14.431Z,10.60
2019-02-07T14:49:45.895Z,10.30
2019-02-07T14:52:16.383Z,10.50
2019-02-07T14:54:46.906Z,10.40
2019-02-07T14:57:17.382Z,10.30
2019-02-07T14:59:48.159Z,10.10
2019-02-07T15:02:19.120Z,10.10
2019-02-07T15:04:49.643Z,10.00
2019-02-07T15:07:20.267Z,10.00
2019-02-07T15:09:50.666Z,9.80
2019-02-07T15:12:21.136Z,9.70
2019-02-07T15:14:51.494Z,9.60
2019-02-07T15:17:23.754Z,9.50
2019-02-07T15:19:54.131Z,9.50
2019-02-07T15:22:24.720Z,9.10
2019-02-07T15:24:55.186Z,8.70
2019-02-07T15:27:25.573Z,8.40
2019-02-07T15:29:56.348Z,8.40
2019-02-07T15:32:26.756Z,8.50
2019-02-07T15:34:57.082Z,8.40
2019-02-07T15:37:28.228Z,8.40
2019-02-07T15:39:58.602Z,8.40
2019-02-07T15:42:30.807Z,8.50
2019-02-07T15:45:02.097Z,8.50
2019-02-07T15:47:34.287Z,8.60
2019-02-07T15:50:08.165Z,8.50
2019-02-07T15:52:38.591Z,8.50
2019-02-07T15:55:09.122Z,8.70
2019-02-07T15:57:39.566Z,8.60
2019-02-07T16:00:27.137Z,8.60
2019-02-07T16:03:01.799Z,8.50
2019-02-07T16:05:32.631Z,8.40
2019-02-07T16:08:03.278Z,8.30
2019-02-07T16:10:33.943Z,8.10
2019-02-07T16:13:04.660Z,8.10
2019-02-07T16:15:35.243Z,8.00
2019-02-07T16:18:05.803Z,8.00
2019-02-07T16:20:36.300Z,8.00
2019-02-07T16:23:08.445Z,8.10
2019-02-07T16:25:39.158Z,8.10
2019-02-07T16:28:09.670Z,8.00
2019-02-07T16:30:42.002Z,8.10
2019-02-07T16:33:12.458Z,8.10
2019-02-07T16:35:43.146Z,8.00
2019-02-07T16:38:14.303Z,8.00
2019-02-07T16:40:44.958Z,7.90
2019-02-07T16:43:15.389Z,7.90
2019-02-07T16:45:46.066Z,8.00
2019-02-07T16:48:17.066Z,8.00
2019-02-07T16:50:47.743Z,8.00
2019-02-07T16:53:18.194Z,8.10
2019-02-07T16:55:48.615Z,8.10
2019-02-07T16:58:22.335Z,8.10
2019-02-07T17:01:00.818Z,8.10
2019-02-07T17:03:31.239Z,8.20
2019-02-07T17:06:01.843Z,8.20
2019-02-07T17:08:46.004Z,8.10
2019-02-07T17:11:16.416Z,8.20
2019-02-07T17:13:46.871Z,8.10
2019-02-07T17:16:18.494Z,8.10
2019-02-07T17:18:49.739Z,8.10
2019-02-07T17:21:21.595Z,8.10
2019-02-07T17:23:55.740Z,8.10
2019-02-07T17:26:26.291Z,8.20
2019-02-07T17:28:56.691Z,8.20
2019-02-07T17:31:28.842Z,8.20
2019-02-07T17:34:01.184Z,8.20
2019-02-07T17:36:34.263Z,8.20
2019-02-07T17:39:07.734Z,8.10
2019-02-07T17:41:40.878Z,8.10
2019-02-07T17:44:14.647Z,8.20
2019-02-07T17:46:45.159Z,8.20
2019-02-07T17:49:17.266Z,8.20
2019-02-07T17:51:47.879Z,8.20
2019-02-07T17:54:19.155Z,8.10
2019-02-07T17:56:49.734Z,8.10
2019-02-07T17:59:23.235Z,8.20
2019-02-07T18:01:54.428Z,8.20
2019-02-07T18:04:24.791Z,8.20
2019-02-07T18:06:55.427Z,8.20
2019-02-07T18:09:25.807Z,8.20
2019-02-07T18:11:56.183Z,8.20
2019-02-07T18:14:29.787Z,8.20
2019-02-07T18:17:03.204Z,8.10
2019-02-07T18:19:41.207Z,8.20
2019-02-07T18:22:16.744Z,8.10
2019-02-07T18:24:48.531Z,8.20
2019-02-07T18:27:18.991Z,8.20
2019-02-07T18:29:50.165Z,8.10
2019-02-07T18:32:22.393Z,8.20
2019-02-07T18:34:57.621Z,8.20
2019-02-07T18:37:28.669Z,8.20
2019-02-07T18:39:59.172Z,8.10
2019-02-07T18:42:29.871Z,8.10
2019-02-07T18:45:01.258Z,8.20
2019-02-07T18:47:32.099Z,8.20
2019-02-07T18:50:03.261Z,8.20
2019-02-07T18:52:33.604Z,8.10
2019-02-07T18:55:04.572Z,8.10
2019-02-07T18:57:35.021Z,8.10
2019-02-07T19:00:07.692Z,8.20
2019-02-07T19:02:38.471Z,8.20
2019-02-07T19:05:17.079Z,8.20
2019-02-07T19:07:47.551Z,8.20
2019-02-07T19:10:19.560Z,8.20
2019-02-07T19:12:52.882Z,8.20
2019-02-07T19:15:26.739Z,8.20
2019-02-07T19:17:57.196Z,8.20
2019-02-07T19:20:27.560Z,8.10
2019-02-07T19:22:57.998Z,8.10
2019-02-07T19:25:40.599Z,8.10
2019-02-07T19:28:11.753Z,8.10
2019-02-07T19:30:42.335Z,8.10
2019-02-07T19:33:12.713Z,8.10
2019-02-07T19:35:42.979Z,8.10
2019-02-07T19:38:13.510Z,8.10
2019-02-07T19:40:44.284Z,8.00
2019-02-07T19:43:15.300Z,8.00
2019-02-07T19:45:48.211Z,8.00
2019-02-07T19:48:19.151Z,8.00
2019-02-07T19:50:50.340Z,8.00
2019-02-07T19:53:21.092Z,8.00
2019-02-07T19:55:53.282Z,8.00
2019-02-07T19:58:23.711Z,8.00
2019-02-07T20:01:06.480Z,7.90
2019-02-07T20:03:37.410Z,7.90
2019-02-07T20:06:08.003Z,7.80
2019-02-07T20:08:38.848Z,7.80
2019-02-07T20:11:09.351Z,7.80
2019-02-07T20:13:41.271Z,7.80
2019-02-07T20:16:11.690Z,7.80
2019-02-07T20:18:42.462Z,7.70
2019-02-07T20:21:12.796Z,7.70
2019-02-07T20:23:43.180Z,7.70
2019-02-07T20:26:13.443Z,7.70
2019-02-07T20:28:44.386Z,7.70
2019-02-07T20:31:14.747Z,7.60
2019-02-07T20:33:45.087Z,7.70
2019-02-07T20:36:15.523Z,7.70
2019-02-07T20:38:45.861Z,7.70
2019-02-07T20:41:16.353Z,7.60
2019-02-07T20:43:47.471Z,7.60
2019-02-07T20:46:17.905Z,7.60
2019-02-07T20:48:49.971Z,7.50
2019-02-07T20:51:20.621Z,7.50
2019-02-07T20:53:50.987Z,7.50
2019-02-07T20:56:21.483Z,7.50
2019-02-07T20:58:52.895Z,7.50
2019-02-07T21:01:24.310Z,7.60
2019-02-07T21:03:54.811Z,7.60
2019-02-07T21:06:25.133Z,7.60
2019-02-07T21:08:55.674Z,7.60
2019-02-07T21:11:26.052Z,7.70
2019-02-07T21:13:57.030Z,7.60
2019-02-07T21:16:27.444Z,7.60
2019-02-07T21:18:58.996Z,7.70
2019-02-07T21:21:30.266Z,7.60
2019-02-07T21:24:01.350Z,7.50
2019-02-07T21:26:31.778Z,7.50
2019-02-07T21:29:02.291Z,7.50
2019-02-07T21:31:32.682Z,7.50
2019-02-07T21:34:05.003Z,7.50
2019-02-07T21:36:35.394Z,7.40
2019-02-07T21:39:10.278Z,7.50
2019-02-07T21:41:40.766Z,7.50
2019-02-07T21:44:11.398Z,7.60
2019-02-07T21:46:43.128Z,7.50
2019-02-07T21:49:14.372Z,7.50
2019-02-07T21:51:44.736Z,7.50
2019-02-07T21:54:15.683Z,7.50
2019-02-07T21:56:46.835Z,7.50
2019-02-07T21:59:18.114Z,7.40
2019-02-07T22:01:48.500Z,7.30
2019-02-07T22:04:18.899Z,7.30
2019-02-07T22:06:49.354Z,7.30
2019-02-07T22:09:19.779Z,7.30
2019-02-07T22:11:50.295Z,7.20
2019-02-07T22:14:21.064Z,7.30
2019-02-07T22:16:51.562Z,7.30
2019-02-07T22:19:22.047Z,7.30
2019-02-07T22:21:52.495Z,7.30
2019-02-07T22:24:22.882Z,7.40
2019-02-07T22:26:53.204Z,7.30
2019-02-07T22:29:23.579Z,7.30
2019-02-07T22:31:54.009Z,7.30
2019-02-07T22:34:24.447Z,7.30
2019-02-07T22:36:55.836Z,7.20
2019-02-07T22:39:26.266Z,7.20
2019-02-07T22:41:57.307Z,7.10
2019-02-07T22:44:27.638Z,7.10
2019-02-07T22:46:58.061Z,7.00
2019-02-07T22:49:28.447Z,6.90
2019-02-07T22:51:59.729Z,6.80
2019-02-07T22:54:30.996Z,6.80
2019-02-07T22:57:02.264Z,6.80
2019-02-07T22:59:33.047Z,6.80
2019-02-07T23:02:04.278Z,6.80
2019-02-07T23:04:34.778Z,6.80
2019-02-07T23:07:05.398Z,6.70
2019-02-07T23:09:37.132Z,6.70
2019-02-07T23:12:07.739Z,6.70
2019-02-07T23:14:38.114Z,6.70
2019-02-07T23:17:08.542Z,6.60
2019-02-07T23:19:38.966Z,6.60
2019-02-07T23:22:09.617Z,6.60
2019-02-07T23:24:40.078Z,6.50
2019-02-07T23:27:10.479Z,6.50
2019-02-07T23:29:40.890Z,6.50
2019-02-07T23:32:11.415Z,6.50
2019-02-07T23:34:41.796Z,6.50
2019-02-07T23:37:12.556Z,6.50
2019-02-07T23:39:42.876Z,6.50
2019-02-07T23:42:13.379Z,6.50
2019-02-07T23:44:43.789Z,6.50
2019-02-07T23:47:14.453Z,6.50
2019-02-07T23:49:44.857Z,6.50
2019-02-07T23:52:16.745Z,6.40
2019-02-07T23:54:47.636Z,6.40
2019-02-07T23:57:18.131Z,6.50
2019-02-07T23:59:48.673Z,6.40
